createdAt,value
2018-05-18T00:00:06.205Z,96865.52
2018-05-18T00:02:32.116Z,96865.75
2018-05-18T00:04:58.027Z,96859.01
2018-05-18T00:07:23.911Z,96856.97
2018-05-18T00:09:49.840Z,96864.26
2018-05-18T00:12:15.748Z,96865.71
2018-05-18T00:14:42.523Z,96859.99
2018-05-18T00:17:08.490Z,96862.97
2018-05-18T00:19:34.407Z,96857.34
2018-05-18T00:22:00.567Z,96858.69
2018-05-18T00:24:26.447Z,96853.78
2018-05-18T00:26:52.407Z,96855.03
2018-05-18T00:29:18.351Z,96850.89
2018-05-18T00:31:44.276Z,96850.78
2018-05-18T00:34:10.212Z,96846.45
2018-05-18T00:36:36.171Z,96849.11
2018-05-18T00:39:02.129Z,96842.54
2018-05-18T00:41:28.056Z,96840.87
2018-05-18T00:43:54.043Z,96845.86
2018-05-18T00:46:19.928Z,96849.83
2018-05-18T00:48:45.865Z,96840.36
2018-05-18T00:51:15.621Z,96840.66
2018-05-18T00:53:41.522Z,96836.51
2018-05-18T00:56:08.809Z,96841.80
2018-05-18T00:58:34.725Z,96848.13
2018-05-18T01:01:03.498Z,96851.58
2018-05-18T01:03:29.396Z,96842.12
2018-05-18T01:05:55.311Z,96838.48
2018-05-18T01:08:21.244Z,96844.27
2018-05-18T01:10:47.115Z,96843.56
2018-05-18T01:13:16.528Z,96833.39
2018-05-18T01:15:42.432Z,96838.63
2018-05-18T01:18:09.689Z,96835.94
2018-05-18T01:20:35.659Z,96836.53
2018-05-18T01:23:04.672Z,96831.61
2018-05-18T01:25:30.666Z,96828.78
2018-05-18T01:27:59.485Z,96835.06
2018-05-18T01:30:25.339Z,96829.94
2018-05-18T01:32:54.707Z,96829.14
2018-05-18T01:35:20.638Z,96833.55
2018-05-18T01:37:49.914Z,96832.73
2018-05-18T01:40:15.816Z,96830.44
2018-05-18T01:42:41.747Z,96833.41
2018-05-18T01:45:07.685Z,96836.22
2018-05-18T01:47:33.618Z,96834.41
2018-05-18T01:50:00.674Z,96837.83
2018-05-18T01:52:26.612Z,96839.33
2018-05-18T01:54:55.546Z,96832.22
2018-05-18T01:57:21.464Z,96833.67
2018-05-18T01:59:50.836Z,96835.58
2018-05-18T02:02:16.785Z,96835.64
2018-05-18T02:04:46.261Z,96829.14
2018-05-18T02:07:12.183Z,96839.23
2018-05-18T02:09:39.275Z,96836.89
2018-05-18T02:12:05.208Z,96837.74
2018-05-18T02:14:35.291Z,96842.16
2018-05-18T02:17:01.209Z,96838.81
2018-05-18T02:19:27.119Z,96842.70
2018-05-18T02:21:53.047Z,96841.69
2018-05-18T02:24:18.976Z,96841.95
2018-05-18T02:26:46.280Z,96844.50
2018-05-18T02:29:12.202Z,96849.27
2018-05-18T02:31:41.268Z,96847.32
2018-05-18T02:34:07.188Z,96845.36
2018-05-18T02:36:36.204Z,96846.84
2018-05-18T02:39:02.176Z,96840.11
2018-05-18T02:41:31.265Z,96840.95
2018-05-18T02:43:57.191Z,96839.97
2018-05-18T02:46:26.234Z,96833.20
2018-05-18T02:48:52.137Z,96835.85
2018-05-18T02:51:19.362Z,96834.33
2018-05-18T02:53:45.219Z,96834.96
2018-05-18T02:56:11.217Z,96835.73
2018-05-18T02:58:37.092Z,96824.72
2018-05-18T03:01:02.995Z,96837.14
2018-05-18T03:03:30.836Z,96838.75
2018-05-18T03:05:56.861Z,96839.25
2018-05-18T03:08:25.914Z,96843.05
2018-05-18T03:10:51.804Z,96845.70
2018-05-18T03:13:20.475Z,96847.62
2018-05-18T03:15:46.366Z,96836.63
2018-05-18T03:18:15.359Z,96835.81
2018-05-18T03:20:41.260Z,96836.98
2018-05-18T03:23:09.967Z,96829.93
2018-05-18T03:25:35.865Z,96829.75
2018-05-18T03:28:04.729Z,96836.30
2018-05-18T03:30:30.626Z,96839.89
2018-05-18T03:32:57.412Z,96840.45
2018-05-18T03:35:23.423Z,96842.16
2018-05-18T03:37:49.860Z,96840.56
2018-05-18T03:40:16.600Z,96838.89
2018-05-18T03:42:42.511Z,96841.98
2018-05-18T03:45:11.432Z,96838.78
2018-05-18T03:47:37.408Z,96840.57
2018-05-18T03:50:07.143Z,96841.98
2018-05-18T03:52:33.031Z,96840.56
2018-05-18T03:55:00.947Z,96842.41
2018-05-18T03:57:27.466Z,96844.20
2018-05-18T03:59:56.635Z,96839.59
2018-05-18T04:02:34.716Z,96845.69
2018-05-18T04:05:13.034Z,96853.05
2018-05-18T04:07:46.818Z,96849.41
2018-05-18T04:10:27.023Z,96850.03
2018-05-18T04:12:52.951Z,96847.55
2018-05-18T04:15:18.885Z,96858.31
2018-05-18T04:17:44.806Z,96861.83
2018-05-18T04:20:11.761Z,96860.53
2018-05-18T04:22:37.655Z,96857.92
2018-05-18T04:25:03.531Z,96859.73
2018-05-18T04:27:29.455Z,96819.93
2018-05-18T04:29:55.365Z,96868.56
2018-05-18T04:32:21.255Z,96870.42
2018-05-18T04:34:47.214Z,96859.66
2018-05-18T04:37:13.144Z,96814.61
2018-05-18T04:39:39.060Z,96866.59
2018-05-18T04:42:04.969Z,96866.07
2018-05-18T04:44:30.879Z,96856.74
2018-05-18T04:46:56.773Z,96866.12
2018-05-18T04:49:22.691Z,96870.20
2018-05-18T04:51:48.594Z,96871.80
2018-05-18T04:54:14.539Z,96874.20
2018-05-18T04:56:40.441Z,96869.61
2018-05-18T04:59:06.386Z,96872.28
2018-05-18T05:01:32.279Z,96871.55
2018-05-18T05:03:58.282Z,96875.08
2018-05-18T05:06:24.187Z,96864.41
2018-05-18T05:08:50.104Z,96871.44
2018-05-18T05:11:16.027Z,96873.78
2018-05-18T05:13:41.935Z,96875.77
2018-05-18T05:16:07.860Z,96870.28
2018-05-18T05:18:33.766Z,96876.37
2018-05-18T05:20:59.676Z,96868.53
2018-05-18T05:23:25.590Z,96873.27
2018-05-18T05:25:51.499Z,96875.59
2018-05-18T05:28:17.420Z,96875.02
2018-05-18T05:30:43.369Z,96883.30
2018-05-18T05:33:09.273Z,96881.87
2018-05-18T05:35:35.175Z,96879.53
2018-05-18T05:38:01.070Z,96877.87
2018-05-18T05:40:26.979Z,96881.06
2018-05-18T05:42:52.899Z,96884.42
2018-05-18T05:45:19.008Z,96880.56
2018-05-18T05:47:44.916Z,96883.24
2018-05-18T05:50:10.931Z,96884.84
2018-05-18T05:52:36.826Z,96885.06
2018-05-18T05:55:06.349Z,96883.48
2018-05-18T05:57:32.252Z,96888.49
2018-05-18T05:59:58.147Z,96887.05
2018-05-18T06:02:24.103Z,96892.72
2018-05-18T06:04:50.043Z,96891.50
2018-05-18T06:07:17.899Z,96887.74
2018-05-18T06:09:43.820Z,96891.08
2018-05-18T06:12:12.858Z,96887.33
2018-05-18T06:14:38.782Z,96879.25
2018-05-18T06:17:07.697Z,96884.79
2018-05-18T06:19:33.687Z,96886.31
2018-05-18T06:22:03.471Z,96883.83
2018-05-18T07:52:25.368Z,96883.18
2018-05-18T07:54:51.285Z,96882.40
2018-05-18T07:57:17.681Z,96879.27
2018-05-18T07:59:43.585Z,96892.33
2018-05-18T08:02:09.472Z,96890.25
2018-05-18T08:04:35.389Z,96890.20
2018-05-18T08:07:01.301Z,96890.01
2018-05-18T08:09:27.278Z,96873.27
2018-05-18T08:11:53.224Z,96890.31
2018-05-18T08:14:19.128Z,96890.28
2018-05-18T08:16:45.133Z,96889.85
2018-05-18T08:19:11.049Z,96889.33
2018-05-18T08:21:37.068Z,96887.36
2018-05-18T08:24:02.952Z,96892.40
2018-05-18T08:26:29.174Z,96895.24
2018-05-18T08:29:07.363Z,96895.38
2018-05-18T08:31:33.300Z,96893.16
2018-05-18T08:34:00.102Z,96896.00
2018-05-18T08:36:26.261Z,96899.50
2018-05-18T08:39:13.596Z,96890.69
2018-05-18T08:41:39.484Z,96895.47
2018-05-18T08:44:08.376Z,96895.42
2018-05-18T08:46:34.301Z,96888.95
2018-05-18T08:49:03.578Z,96881.58
2018-05-18T08:51:29.533Z,96885.36
2018-05-18T08:53:59.384Z,96880.58
2018-05-18T08:56:25.318Z,96880.61
2018-05-18T08:58:52.448Z,96877.71
2018-05-18T09:01:18.380Z,96882.00
2018-05-18T09:03:44.304Z,96883.41
2018-05-18T09:06:10.214Z,96881.33
2018-05-18T09:08:36.178Z,96881.58
2018-05-18T09:11:05.563Z,96884.16
2018-05-18T09:13:31.507Z,96889.63
2018-05-18T09:16:00.591Z,96888.41
2018-05-18T09:18:26.471Z,96891.52
2018-05-18T09:20:54.262Z,96887.36
2018-05-18T09:23:20.273Z,96886.84
2018-05-18T09:25:49.863Z,96886.73
2018-05-18T09:28:15.763Z,96885.21
2018-05-18T09:30:42.782Z,96885.38
2018-05-18T09:33:08.703Z,96887.44
2018-05-18T09:35:38.323Z,96880.77
2018-05-18T09:38:04.204Z,96877.04
2018-05-18T09:40:30.110Z,96884.84
2018-05-18T09:42:56.049Z,96877.67
2018-05-18T09:45:22.000Z,96882.23
2018-05-18T09:47:49.328Z,96879.61
2018-05-18T09:50:15.236Z,96886.91
2018-05-18T09:52:45.123Z,96888.41
2018-05-18T09:55:11.238Z,96880.90
2018-05-18T09:57:38.843Z,96886.27
2018-05-18T10:00:04.798Z,96891.94
2018-05-18T10:02:34.373Z,96883.13
2018-05-18T10:05:00.293Z,96884.23
2018-05-18T10:07:29.285Z,96860.94
2018-05-18T10:09:55.240Z,96877.99
2018-05-18T10:12:22.922Z,96884.99
2018-05-18T10:14:49.519Z,96884.79
2018-05-18T10:17:15.445Z,96877.66
2018-05-18T10:19:41.389Z,96872.50
2018-05-18T10:22:07.383Z,96878.45
2018-05-18T10:24:34.726Z,96877.91
2018-05-18T10:27:00.698Z,96872.02
2018-05-18T10:29:29.552Z,96873.45
2018-05-18T10:31:55.488Z,96877.30
2018-05-18T10:34:24.269Z,96864.08
2018-05-18T10:36:50.145Z,96863.57
2018-05-18T10:39:20.285Z,96867.65
2018-05-18T10:41:46.233Z,96865.56
2018-05-18T10:44:14.016Z,96868.39
2018-05-18T10:46:39.954Z,96869.99
2018-05-18T10:49:09.083Z,96863.53
2018-05-18T10:51:35.008Z,96858.09
2018-05-18T10:54:00.934Z,96862.72
2018-05-18T10:56:26.867Z,96864.67
2018-05-18T10:58:56.767Z,96862.83
2018-05-18T11:01:22.724Z,96856.74
2018-05-18T11:03:48.628Z,96859.05
2018-05-18T11:06:14.595Z,96850.58
2018-05-18T11:08:40.543Z,96853.19
2018-05-18T11:11:10.288Z,96853.55
2018-05-18T11:13:36.164Z,96850.93
2018-05-18T11:16:05.147Z,96851.98
2018-05-18T11:18:31.054Z,96846.81
2018-05-18T11:20:58.952Z,96842.43
2018-05-18T11:23:24.954Z,96840.27
2018-05-18T11:25:53.686Z,96829.30
2018-05-18T11:28:19.627Z,96838.22
2018-05-18T11:30:45.547Z,96834.09
2018-05-18T11:33:11.542Z,96840.36
2018-05-18T11:35:38.322Z,96838.52
2018-05-18T11:38:05.685Z,96832.20
2018-05-18T11:40:31.584Z,96833.90
2018-05-18T11:43:01.304Z,96834.98
2018-05-18T11:45:40.844Z,96829.56
2018-05-18T11:48:06.799Z,96831.80
2018-05-18T11:50:32.983Z,96820.99
2018-05-18T11:52:58.963Z,96820.98
2018-05-18T11:55:24.902Z,96821.02
2018-05-18T11:57:50.780Z,96814.59
2018-05-18T12:00:16.725Z,96820.48
2018-05-18T12:02:42.820Z,96810.52
2018-05-18T12:05:08.728Z,96804.70
2018-05-18T12:07:34.748Z,96803.11
2018-05-18T12:10:00.676Z,96806.30
2018-05-18T12:12:26.616Z,96804.12
2018-05-18T12:14:52.998Z,96804.89
2018-05-18T12:17:18.949Z,96795.00
2018-05-18T12:19:45.361Z,96785.30
2018-05-18T12:22:11.359Z,96789.78
2018-05-18T12:24:40.389Z,96798.20
2018-05-18T12:27:06.307Z,96794.78
2018-05-18T12:29:35.567Z,96795.16
2018-05-18T12:32:01.523Z,96793.95
2018-05-18T12:34:30.619Z,96793.31
2018-05-18T12:36:56.529Z,96790.53
2018-05-18T12:39:24.481Z,96786.92
2018-05-18T12:41:50.394Z,96786.16
2018-05-18T12:44:16.362Z,96785.23
2018-05-18T12:46:42.372Z,96787.29
2018-05-18T12:54:53.531Z,96781.50
2018-05-18T12:57:19.473Z,96775.11
2018-05-18T12:59:45.455Z,96777.99
2018-05-18T13:02:11.362Z,96777.53
2018-05-18T13:04:37.277Z,96765.45
2018-05-18T13:07:03.197Z,96766.64
2018-05-18T13:09:29.139Z,96765.48
2018-05-18T13:11:55.157Z,96768.96
2018-05-18T13:14:21.161Z,96772.72
2018-05-18T13:16:47.114Z,96772.16
2018-05-18T13:19:13.071Z,96770.41
2018-05-18T13:21:39.016Z,96764.11
2018-05-18T13:24:05.779Z,96759.39
2018-05-18T13:26:31.668Z,96755.10
2018-05-18T13:28:57.730Z,96756.54
2018-05-18T13:31:23.746Z,96760.17
2018-05-18T13:33:49.663Z,96753.44
2018-05-18T13:36:15.589Z,96756.89
2018-05-18T13:38:41.802Z,96755.82
2018-05-18T13:41:07.732Z,96760.95
2018-05-18T13:43:33.753Z,96757.53
2018-05-18T13:45:59.644Z,96757.94
2018-05-18T13:48:25.592Z,96750.86
2018-05-18T13:50:51.523Z,96748.16
2018-05-18T13:53:17.477Z,96748.80
2018-05-18T13:55:43.434Z,96744.34
2018-05-18T13:58:09.371Z,96747.11
2018-05-18T14:00:35.297Z,96744.30
2018-05-18T14:03:01.209Z,96744.20
2018-05-18T14:05:27.152Z,96746.34
2018-05-18T14:07:53.058Z,96744.08
2018-05-18T14:10:19.018Z,96740.52
2018-05-18T14:12:44.942Z,96741.76
2018-05-18T14:15:10.925Z,96738.08
2018-05-18T14:17:36.865Z,96734.34
2018-05-18T14:20:02.805Z,96733.34
2018-05-18T14:22:28.762Z,96738.09
2018-05-18T14:24:54.896Z,96733.81
2018-05-18T14:27:20.812Z,96732.90
2018-05-18T14:29:46.736Z,96735.15
2018-05-18T14:32:12.680Z,96738.33
2018-05-18T14:34:38.633Z,96736.74
2018-05-18T14:37:04.556Z,96729.23
2018-05-18T14:39:30.461Z,96727.97
2018-05-18T14:41:56.403Z,96721.38
2018-05-18T14:44:22.362Z,96734.62
2018-05-18T14:46:48.301Z,96739.31
2018-05-18T14:49:14.234Z,96733.18
2018-05-18T14:51:41.278Z,96734.49
2018-05-18T14:54:07.256Z,96731.83
2018-05-18T14:56:37.081Z,96729.96
2018-05-18T14:59:03.050Z,96729.84
2018-05-18T15:01:30.921Z,96732.93
2018-05-18T15:03:56.819Z,96729.42
2018-05-18T15:06:26.372Z,96730.58
2018-05-18T15:08:52.292Z,96728.97
2018-05-18T15:11:18.241Z,96731.64
2018-05-18T15:13:44.154Z,96740.03
2018-05-18T15:16:10.136Z,96738.08
2018-05-18T15:18:38.504Z,96735.30
2018-05-18T15:21:04.421Z,96739.00
2018-05-18T15:23:32.184Z,96738.94
2018-05-18T15:25:58.116Z,96735.67
2018-05-18T15:28:28.411Z,96733.72
2018-05-18T15:30:54.302Z,96731.75
2018-05-18T15:33:21.998Z,96734.55
2018-05-18T15:35:47.914Z,96735.31
2018-05-18T15:38:17.699Z,96730.43
2018-05-18T15:40:43.615Z,96729.36
2018-05-18T15:43:12.524Z,96728.61
2018-05-18T15:45:38.444Z,96734.20
2018-05-18T15:48:04.369Z,96726.54
2018-05-18T15:50:30.370Z,96723.97
2018-05-18T15:52:56.314Z,96726.06
2018-05-18T15:55:22.735Z,96730.24
2018-05-18T15:57:48.661Z,96730.62
2018-05-18T16:00:17.692Z,96728.52
2018-05-18T16:02:43.587Z,96724.66
2018-05-18T16:05:13.336Z,96727.09
2018-05-18T16:07:39.242Z,96726.71
2018-05-18T16:10:07.114Z,96727.33
2018-05-18T16:12:33.050Z,96727.91
2018-05-18T16:15:02.101Z,96723.56
2018-05-18T16:17:28.049Z,96719.97
2018-05-18T16:19:57.222Z,96719.58
2018-05-18T16:22:23.154Z,96726.22
2018-05-18T16:24:49.107Z,96725.28
2018-05-18T16:27:15.064Z,96726.66
2018-05-18T16:29:40.959Z,96721.63
2018-05-18T16:32:08.219Z,96720.95
2018-05-18T16:34:34.207Z,96722.09
2018-05-18T16:37:03.132Z,96719.73
2018-05-18T16:39:29.079Z,96726.85
2018-05-18T16:41:58.938Z,96727.36
2018-05-18T16:44:24.857Z,96731.09
2018-05-18T16:46:52.009Z,96726.36
2018-05-18T16:49:17.953Z,96747.33
2018-05-18T16:51:47.419Z,96729.88
2018-05-18T16:54:13.422Z,96732.50
2018-05-18T16:56:42.459Z,96732.91
2018-05-18T16:59:08.428Z,96738.70
2018-05-18T17:01:34.360Z,96733.61
2018-05-18T17:04:00.285Z,96741.66
2018-05-18T17:06:26.233Z,96744.31
2018-05-18T17:08:53.331Z,96738.11
2018-05-18T17:11:19.297Z,96741.05
2018-05-18T17:13:48.855Z,96741.08
2018-05-18T17:16:14.782Z,96744.95
2018-05-18T17:18:42.737Z,96746.61
2018-05-18T17:21:08.662Z,96747.70
2018-05-18T17:23:37.186Z,96701.33
2018-05-18T17:26:03.211Z,96754.45
2018-05-18T17:28:33.067Z,96754.52
2018-05-18T17:30:59.000Z,96760.89
2018-05-18T17:33:26.870Z,96754.35
2018-05-18T17:35:52.791Z,96750.06
2018-05-18T17:38:18.711Z,96758.55
2018-05-18T17:40:44.639Z,96741.59
2018-05-18T17:43:10.656Z,96749.22
2018-05-18T17:45:39.605Z,96755.15
2018-05-18T17:48:05.595Z,96754.98
2018-05-18T17:50:33.465Z,96758.88
2018-05-18T17:52:59.462Z,96752.13
2018-05-18T17:55:28.938Z,96757.87
2018-05-18T17:57:54.864Z,96751.16
2018-05-18T18:00:23.890Z,96754.59
2018-05-18T18:02:49.794Z,96756.20
2018-05-18T18:05:17.512Z,96750.56
2018-05-18T18:07:43.454Z,96753.01
2018-05-18T18:10:12.301Z,96752.46
2018-05-18T18:12:38.232Z,96752.50
2018-05-18T18:15:04.189Z,96746.91
2018-05-18T18:17:30.113Z,96756.95
2018-05-18T18:19:56.046Z,96761.21
2018-05-18T18:22:25.335Z,96759.41
2018-05-18T18:24:51.237Z,96763.44
2018-05-18T18:27:19.102Z,96767.66
2018-05-18T18:29:45.024Z,96764.34
2018-05-18T18:32:14.756Z,96767.22
2018-05-18T18:34:40.678Z,96773.22
2018-05-18T18:37:08.531Z,96774.89
2018-05-18T18:39:34.482Z,96776.98
2018-05-18T18:42:04.064Z,96776.44
2018-05-18T18:50:16.664Z,96784.48
2018-05-18T18:52:42.605Z,96787.08
2018-05-18T18:55:08.578Z,96788.41
2018-05-18T18:57:34.494Z,96771.80
2018-05-18T19:00:00.435Z,96793.67
2018-05-18T19:02:26.364Z,96793.65
2018-05-18T19:04:52.279Z,96785.34
2018-05-18T19:07:18.210Z,96791.39
2018-05-18T19:09:44.116Z,96793.64
2018-05-18T19:12:10.029Z,96800.53
2018-05-18T19:14:36.005Z,96798.63
2018-05-18T19:17:02.488Z,96795.34
2018-05-18T19:19:28.438Z,96804.88
2018-05-18T19:21:54.380Z,96786.42
2018-05-18T19:24:29.743Z,96801.62
2018-05-18T19:27:03.598Z,96803.03
2018-05-18T19:29:32.843Z,96796.58
2018-05-18T19:31:59.653Z,96800.80
2018-05-18T19:34:25.515Z,96802.25
2018-05-18T19:36:54.470Z,96808.19
2018-05-18T19:39:24.956Z,96805.13
2018-05-18T19:41:51.476Z,96808.91
2018-05-18T19:44:27.971Z,96803.01
2018-05-18T19:46:55.410Z,96810.66
2018-05-18T19:49:21.315Z,96809.61
2018-05-18T19:51:50.123Z,96821.16
2018-05-18T19:54:17.010Z,96820.64
2018-05-18T19:56:46.285Z,96821.58
2018-05-18T19:59:12.426Z,96824.14
2018-05-18T20:01:40.034Z,96831.67
2018-05-18T20:04:14.767Z,96832.73
2018-05-18T20:06:40.750Z,96835.57
2018-05-18T20:09:06.678Z,96834.05
2018-05-18T20:11:32.603Z,96843.98
2018-05-18T20:14:00.857Z,96835.94
2018-05-18T20:16:26.773Z,96831.36
2018-05-18T20:18:52.747Z,96839.76
2018-05-18T20:21:18.722Z,96837.06
2018-05-18T20:23:44.660Z,96837.20
2018-05-18T20:26:34.343Z,96845.30
2018-05-18T20:29:10.549Z,96849.05
2018-05-18T20:31:46.717Z,96844.34
2018-05-18T20:34:13.644Z,96850.63
2018-05-18T20:36:45.733Z,96851.63
2018-05-18T20:39:22.982Z,96856.55
2018-05-18T20:41:53.871Z,96860.52
2018-05-18T20:44:30.754Z,96858.33
2018-05-18T20:47:00.977Z,96861.15
2018-05-18T20:49:27.010Z,96857.27
2018-05-18T20:52:03.446Z,96855.08
2018-05-18T20:54:31.043Z,96853.34
2018-05-18T20:57:00.510Z,96863.66
2018-05-18T20:59:32.761Z,96862.84
2018-05-18T21:02:01.295Z,96864.77
2018-05-18T21:07:05.241Z,96859.58
2018-05-18T21:12:12.360Z,96859.09
2018-05-18T21:14:38.291Z,96870.97
2018-05-18T21:17:04.212Z,96876.08
2018-05-18T21:20:07.954Z,96870.64
2018-05-18T21:22:37.732Z,96876.47
2018-05-18T21:25:05.620Z,96867.58
2018-05-18T21:27:31.575Z,96871.89
2018-05-18T21:29:57.497Z,96875.86
2018-05-18T21:32:23.453Z,96876.62
2018-05-18T21:34:49.369Z,96874.06
2018-05-18T21:37:15.276Z,96870.83
2018-05-18T21:39:41.196Z,96871.91
2018-05-18T21:42:08.494Z,96872.56
2018-05-18T21:44:43.695Z,96869.42
2018-05-18T21:47:10.613Z,96865.47
2018-05-18T21:49:36.519Z,96868.86
2018-05-18T21:52:02.509Z,96867.66
2018-05-18T21:57:17.348Z,96873.08
2018-05-18T21:59:48.755Z,96878.47
2018-05-18T22:02:15.040Z,96883.18
2018-05-18T22:04:40.951Z,96877.09
2018-05-18T22:07:06.883Z,96887.09
2018-05-18T22:09:32.753Z,96866.89
2018-05-18T22:11:58.673Z,96874.59
2018-05-18T22:14:24.637Z,96880.35
2018-05-18T22:16:50.536Z,96884.28
2018-05-18T22:19:16.473Z,96883.17
2018-05-18T22:21:42.380Z,96876.77
2018-05-18T22:24:08.333Z,96882.77
2018-05-18T22:26:34.280Z,96876.59
2018-05-18T22:29:00.185Z,96882.70
2018-05-18T22:31:26.075Z,96885.41
2018-05-18T22:33:51.996Z,96884.19
2018-05-18T22:36:17.891Z,96880.36
2018-05-18T22:38:43.848Z,96877.85
2018-05-18T22:41:09.776Z,96873.51
2018-05-18T22:43:35.699Z,96878.98
2018-05-18T22:46:01.596Z,96876.00
2018-05-18T22:48:27.551Z,96876.32
2018-05-18T22:50:53.511Z,96878.34
2018-05-18T22:53:19.447Z,96878.29
2018-05-18T22:55:45.488Z,96870.00
2018-05-18T22:58:11.415Z,96870.39
2018-05-18T23:00:37.378Z,96874.70
2018-05-18T23:03:03.359Z,96875.75
2018-05-18T23:05:29.277Z,96875.41
2018-05-18T23:07:55.228Z,96878.78
2018-05-18T23:10:21.173Z,96881.52
2018-05-18T23:12:47.097Z,96881.81
2018-05-18T23:15:16.984Z,96880.54
2018-05-18T23:17:43.031Z,96872.67
2018-05-18T23:20:10.940Z,96882.58
2018-05-18T23:22:36.935Z,96876.81
2018-05-18T23:25:05.950Z,96880.48
2018-05-18T23:27:31.860Z,96877.88
2018-05-18T23:29:58.202Z,96876.41
2018-05-18T23:32:24.121Z,96879.02
2018-05-18T23:34:51.590Z,96878.57
2018-05-18T23:37:17.826Z,96873.20
2018-05-18T23:39:43.769Z,96877.55
2018-05-18T23:42:11.608Z,96876.70
2018-05-18T23:44:37.556Z,96866.40
2018-05-18T23:47:06.660Z,96863.52
2018-05-18T23:49:32.626Z,96870.34
2018-05-18T23:52:01.644Z,96873.11
2018-05-18T23:54:27.725Z,96870.95
2018-05-18T23:56:55.292Z,96871.38
2018-05-18T23:59:21.239Z,96865.70
